createdAt,value
2023-05-06T00:00:37.393Z,97.44
2023-05-06T00:01:37.217Z,97.44
2023-05-06T00:02:37.422Z,97.44
2023-05-06T00:03:37.285Z,97.33
2023-05-06T00:04:37.429Z,97.23
2023-05-06T00:05:37.196Z,97.23
2023-05-06T00:06:37.395Z,97.23
2023-05-06T00:07:37.148Z,97.33
2023-05-06T00:08:37.329Z,97.23
2023-05-06T00:09:37.351Z,97.23
2023-05-06T00:10:37.151Z,97.23
2023-05-06T00:11:37.239Z,97.23
2023-05-06T00:12:37.146Z,97.23
2023-05-06T00:13:37.197Z,97.23
2023-05-06T00:14:37.158Z,97.13
2023-05-06T00:15:37.085Z,97.13
2023-05-06T00:16:37.140Z,97.23
2023-05-06T00:17:37.091Z,97.23
2023-05-06T00:18:37.206Z,97.23
2023-05-06T00:19:36.992Z,97.33
2023-05-06T00:20:37.076Z,97.44
2023-05-06T00:21:37.001Z,97.44
2023-05-06T00:22:37.150Z,97.64
2023-05-06T00:23:36.950Z,97.84
2023-05-06T00:24:37.244Z,98.05
2023-05-06T00:25:36.981Z,98.30
2023-05-06T00:26:37.074Z,98.35
2023-05-06T00:27:36.912Z,98.39
2023-05-06T00:28:36.968Z,98.30
2023-05-06T00:29:36.922Z,98.19
2023-05-06T00:30:37.057Z,98.05
2023-05-06T00:31:36.875Z,97.94
2023-05-06T00:32:36.958Z,97.94
2023-05-06T00:33:36.794Z,97.94
2023-05-06T00:34:36.947Z,97.84
2023-05-06T00:35:36.984Z,97.74
2023-05-06T00:36:36.830Z,97.74
2023-05-06T00:37:36.791Z,97.74
2023-05-06T00:38:36.817Z,97.74
2023-05-06T00:39:36.874Z,97.53
2023-05-06T00:40:36.949Z,97.53
2023-05-06T00:41:36.726Z,97.44
2023-05-06T00:42:36.744Z,97.44
2023-05-06T00:43:36.707Z,97.44
2023-05-06T00:44:36.760Z,97.44
2023-05-06T00:45:36.694Z,97.33
2023-05-06T00:46:36.892Z,97.33
2023-05-06T00:47:36.632Z,97.23
2023-05-06T00:48:36.728Z,97.23
2023-05-06T00:49:36.586Z,97.23
2023-05-06T00:50:36.717Z,97.33
2023-05-06T00:51:36.581Z,97.23
2023-05-06T00:52:36.738Z,97.23
2023-05-06T00:53:36.576Z,97.13
2023-05-06T00:54:36.736Z,97.23
2023-05-06T00:55:36.520Z,97.23
2023-05-06T00:56:36.630Z,97.33
2023-05-06T00:57:36.513Z,97.23
2023-05-06T00:58:36.607Z,97.23
2023-05-06T00:59:36.474Z,97.33
2023-05-06T01:00:36.701Z,97.33
2023-05-06T01:01:36.712Z,97.33
2023-05-06T01:02:46.207Z,97.23
2023-05-06T01:03:36.628Z,97.23
2023-05-06T01:04:36.534Z,97.23
2023-05-06T01:05:36.410Z,97.13
2023-05-06T01:06:36.617Z,97.03
2023-05-06T01:07:36.391Z,96.92
2023-05-06T01:08:36.407Z,96.83
2023-05-06T01:09:36.388Z,96.83
2023-05-06T01:10:36.435Z,96.83
2023-05-06T01:11:36.339Z,96.83
2023-05-06T01:12:36.477Z,96.83
2023-05-06T01:13:36.305Z,96.83
2023-05-06T01:14:36.521Z,96.83
2023-05-06T01:15:36.288Z,96.83
2023-05-06T01:16:36.551Z,96.83
2023-05-06T01:17:36.330Z,96.72
2023-05-06T01:18:36.295Z,96.72
2023-05-06T01:19:36.211Z,96.62
2023-05-06T01:20:36.357Z,96.52
2023-05-06T01:21:36.193Z,96.52
2023-05-06T01:22:36.421Z,96.52
2023-05-06T01:23:36.152Z,96.56
2023-05-06T01:24:37.012Z,96.67
2023-05-06T01:25:36.140Z,96.67
2023-05-06T01:26:36.290Z,96.56
2023-05-06T01:27:36.228Z,96.77
2023-05-06T01:28:36.113Z,96.97
2023-05-06T01:29:36.165Z,97.07
2023-05-06T01:30:36.105Z,97.17
2023-05-06T01:31:36.276Z,97.38
2023-05-06T01:32:36.232Z,97.48
2023-05-06T01:33:36.088Z,97.63
2023-05-06T01:34:36.209Z,97.73
2023-05-06T01:35:36.007Z,97.93
2023-05-06T01:36:36.221Z,98.03
2023-05-06T01:37:36.193Z,98.24
2023-05-06T01:38:36.025Z,98.34
2023-05-06T01:39:37.012Z,98.34
2023-05-06T01:40:36.015Z,98.44
2023-05-06T01:41:36.059Z,98.54
2023-05-06T01:42:35.972Z,98.54
2023-05-06T01:43:36.040Z,98.59
2023-05-06T01:44:35.927Z,98.69
2023-05-06T01:45:36.071Z,98.79
2023-05-06T01:46:35.940Z,98.79
2023-05-06T01:47:36.119Z,98.90
2023-05-06T01:48:35.857Z,99.00
2023-05-06T01:49:35.996Z,99.00
2023-05-06T01:50:35.845Z,99.10
2023-05-06T01:51:35.886Z,99.00
2023-05-06T01:52:35.849Z,99.00
2023-05-06T01:53:35.956Z,98.59
2023-05-06T01:54:35.805Z,98.08
2023-05-06T01:55:35.824Z,97.47
2023-05-06T01:56:35.760Z,97.11
2023-05-06T01:57:35.949Z,97.21
2023-05-06T01:58:35.814Z,97.11
2023-05-06T01:59:35.772Z,97.21
2023-05-06T02:00:36.120Z,97.11
2023-05-06T02:01:35.729Z,97.11
2023-05-06T02:02:35.875Z,97.11
2023-05-06T02:03:35.774Z,97.31
2023-05-06T02:04:35.803Z,97.41
2023-05-06T02:05:35.657Z,97.41
2023-05-06T02:06:35.809Z,97.52
2023-05-06T02:07:35.614Z,97.41
2023-05-06T02:08:35.694Z,97.41
2023-05-06T02:09:35.640Z,97.52
2023-05-06T02:10:35.759Z,97.52
2023-05-06T02:11:35.593Z,97.52
2023-05-06T02:12:35.681Z,97.41
2023-05-06T02:13:35.545Z,97.41
2023-05-06T02:14:35.579Z,97.31
2023-05-06T02:15:35.516Z,97.41
2023-05-06T02:16:35.674Z,97.52
2023-05-06T02:17:35.539Z,97.52
2023-05-06T02:18:35.556Z,97.52
2023-05-06T02:19:35.722Z,97.52
2023-05-06T02:20:35.445Z,97.52
2023-05-06T02:21:35.532Z,97.41
2023-05-06T02:22:35.400Z,97.62
2023-05-06T02:23:35.510Z,97.62
2023-05-06T02:24:35.409Z,97.62
2023-05-06T02:25:35.483Z,97.62
2023-05-06T02:26:35.366Z,97.62
2023-05-06T02:27:35.446Z,97.62
2023-05-06T02:28:35.334Z,97.62
2023-05-06T02:29:35.464Z,97.72
2023-05-06T02:30:35.324Z,97.72
2023-05-06T02:31:35.389Z,97.62
2023-05-06T02:32:35.322Z,97.41
2023-05-06T02:33:35.381Z,97.31
2023-05-06T02:34:35.253Z,97.31
2023-05-06T02:35:35.496Z,97.31
2023-05-06T02:36:35.253Z,97.31
2023-05-06T02:37:35.310Z,97.41
2023-05-06T02:38:35.193Z,97.47
2023-05-06T02:39:35.347Z,97.52
2023-05-06T02:40:35.174Z,97.47
2023-05-06T02:41:35.305Z,97.67
2023-05-06T02:42:35.212Z,98.28
2023-05-06T02:43:35.260Z,98.28
2023-05-06T02:44:35.107Z,98.43
2023-05-06T02:45:35.311Z,98.39
2023-05-06T02:46:35.122Z,98.28
2023-05-06T02:47:35.276Z,98.02
2023-05-06T02:48:35.082Z,97.92
2023-05-06T02:49:35.198Z,98.02
2023-05-06T02:50:35.068Z,98.23
2023-05-06T02:51:35.155Z,98.33
2023-05-06T02:52:35.038Z,98.33
2023-05-06T02:53:35.146Z,98.23
2023-05-06T02:54:35.020Z,98.02
2023-05-06T02:55:35.197Z,97.52
2023-05-06T02:56:35.003Z,97.11
2023-05-06T02:57:35.058Z,96.80
2023-05-06T02:58:34.951Z,96.60
2023-05-06T02:59:35.108Z,96.54
2023-05-06T03:00:34.942Z,96.44
2023-05-06T03:01:35.280Z,96.34
2023-05-06T03:02:34.989Z,96.23
2023-05-06T03:03:35.034Z,96.08
2023-05-06T03:04:34.906Z,95.87
2023-05-06T03:05:35.004Z,95.77
2023-05-06T03:06:34.998Z,95.77
2023-05-06T03:07:34.838Z,96.02
2023-05-06T03:08:34.958Z,96.33
2023-05-06T03:09:34.863Z,96.63
2023-05-06T03:10:35.153Z,96.63
2023-05-06T03:11:34.795Z,96.84
2023-05-06T03:12:35.020Z,97.04
2023-05-06T03:13:34.773Z,97.04
2023-05-06T03:14:34.837Z,97.34
2023-05-06T03:15:34.784Z,97.45
2023-05-06T03:16:34.930Z,97.55
2023-05-06T03:17:34.737Z,97.29
2023-05-06T03:18:35.111Z,97.39
2023-05-06T03:19:34.752Z,97.60
2023-05-06T03:20:34.901Z,97.70
2023-05-06T03:21:34.731Z,97.60
2023-05-06T03:22:34.796Z,97.60
2023-05-06T03:23:34.652Z,97.60
2023-05-06T03:24:34.771Z,97.49
2023-05-06T03:25:34.637Z,98.11
2023-05-06T03:26:34.721Z,98.61
2023-05-06T03:27:34.648Z,98.93
2023-05-06T03:28:34.575Z,98.82
2023-05-06T03:29:34.731Z,98.72
2023-05-06T03:30:34.641Z,98.61
2023-05-06T03:31:34.676Z,98.52
2023-05-06T03:32:34.598Z,98.52
2023-05-06T03:33:34.490Z,98.52
2023-05-06T03:34:34.568Z,98.61
2023-05-06T03:35:34.514Z,98.52
2023-05-06T03:36:34.587Z,98.31
2023-05-06T03:37:34.482Z,98.52
2023-05-06T03:38:34.613Z,98.61
2023-05-06T03:39:34.419Z,98.61
2023-05-06T03:40:34.586Z,98.52
2023-05-06T03:41:34.399Z,98.61
2023-05-06T03:42:34.524Z,98.82
2023-05-06T03:43:34.394Z,99.13
2023-05-06T03:44:34.521Z,99.54
2023-05-06T03:45:34.360Z,99.64
2023-05-06T03:46:34.550Z,99.43
2023-05-06T03:47:34.354Z,99.33
2023-05-06T03:48:34.374Z,99.54
2023-05-06T03:49:34.319Z,99.64
2023-05-06T03:50:34.498Z,99.54
2023-05-06T03:51:34.303Z,99.23
2023-05-06T03:52:34.507Z,99.13
2023-05-06T03:53:34.403Z,98.82
2023-05-06T03:54:34.277Z,98.82
2023-05-06T03:55:34.442Z,98.86
2023-05-06T03:56:34.201Z,98.82
2023-05-06T03:57:34.279Z,99.02
2023-05-06T03:58:34.161Z,99.54
2023-05-06T03:59:34.237Z,99.84
2023-05-06T04:00:34.173Z,99.95
2023-05-06T04:01:34.251Z,99.99
2023-05-06T04:02:34.350Z,99.99
2023-05-06T04:03:34.421Z,99.99
2023-05-06T04:04:34.148Z,99.95
2023-05-06T04:05:34.206Z,99.64
2023-05-06T04:06:34.102Z,99.33
2023-05-06T04:07:34.100Z,99.13
2023-05-06T04:08:34.041Z,99.02
2023-05-06T04:09:34.264Z,98.82
2023-05-06T04:10:34.009Z,98.93
2023-05-06T04:11:34.136Z,98.93
2023-05-06T04:12:34.019Z,98.97
2023-05-06T04:13:34.049Z,98.56
2023-05-06T04:14:34.026Z,98.05
2023-05-06T04:15:33.995Z,97.64
2023-05-06T04:16:34.097Z,97.44
2023-05-06T04:17:34.020Z,97.33
2023-05-06T04:18:33.990Z,97.13
2023-05-06T04:19:34.125Z,97.03
2023-05-06T04:20:33.884Z,97.33
2023-05-06T04:21:33.984Z,97.38
2023-05-06T04:22:33.835Z,97.08
2023-05-06T04:23:33.970Z,97.28
2023-05-06T04:24:33.851Z,97.69
2023-05-06T04:25:33.910Z,97.79
2023-05-06T04:26:33.779Z,98.10
2023-05-06T04:27:33.946Z,98.20
2023-05-06T04:28:33.758Z,98.20
2023-05-06T04:29:33.863Z,98.30
2023-05-06T04:30:33.793Z,98.50
2023-05-06T04:31:33.844Z,98.40
2023-05-06T04:32:33.736Z,98.20
2023-05-06T04:33:33.780Z,98.20
2023-05-06T04:34:33.744Z,98.20
2023-05-06T04:35:33.772Z,98.20
2023-05-06T04:36:33.669Z,98.20
2023-05-06T04:37:33.863Z,98.30
2023-05-06T04:38:33.631Z,98.40
2023-05-06T04:39:33.731Z,98.50
2023-05-06T04:40:33.729Z,98.81
2023-05-06T04:41:33.805Z,99.18
2023-05-06T04:42:33.707Z,99.38
2023-05-06T04:43:33.661Z,99.58
2023-05-06T04:44:33.720Z,99.79
2023-05-06T04:45:33.722Z,99.99
2023-05-06T04:46:33.648Z,99.99
2023-05-06T04:47:33.728Z,99.99
2023-05-06T04:48:33.548Z,99.99
2023-05-06T04:49:33.692Z,99.99
2023-05-06T04:50:33.557Z,99.99
2023-05-06T04:51:33.602Z,99.99
2023-05-06T04:52:33.471Z,99.99
2023-05-06T04:53:33.839Z,99.99
2023-05-06T04:54:33.451Z,99.99
2023-05-06T04:55:33.531Z,99.99
2023-05-06T04:56:33.412Z,99.99
2023-05-06T04:57:33.523Z,99.99
2023-05-06T04:58:33.421Z,99.99
2023-05-06T04:59:33.574Z,99.99
2023-05-06T05:00:33.400Z,99.99
2023-05-06T05:01:33.466Z,99.99
2023-05-06T05:02:33.446Z,99.99
2023-05-06T05:03:33.624Z,99.99
2023-05-06T05:04:33.345Z,99.99
2023-05-06T05:05:33.476Z,99.99
2023-05-06T05:06:33.475Z,99.99
2023-05-06T05:07:33.342Z,99.99
2023-05-06T05:08:33.547Z,99.99
2023-05-06T05:09:33.230Z,99.99
2023-05-06T05:10:33.396Z,99.99
2023-05-06T05:11:33.327Z,99.99
2023-05-06T05:12:33.250Z,99.99
2023-05-06T05:13:33.349Z,99.99
2023-05-06T05:14:33.165Z,99.99
2023-05-06T05:15:33.368Z,99.99
2023-05-06T05:16:33.206Z,99.99
2023-05-06T05:17:33.559Z,99.99
2023-05-06T05:18:33.339Z,99.99
2023-05-06T05:19:33.502Z,99.99
2023-05-06T05:20:33.461Z,99.99
2023-05-06T05:21:33.332Z,99.99
2023-05-06T05:22:33.196Z,99.99
2023-05-06T05:23:33.385Z,99.99
2023-05-06T05:24:33.544Z,99.99
2023-05-06T05:25:33.190Z,99.99
2023-05-06T05:26:33.034Z,99.99
2023-05-06T05:27:33.195Z,99.99
2023-05-06T05:28:33.148Z,99.99
2023-05-06T05:29:33.173Z,99.99
2023-05-06T05:30:39.266Z,99.99
2023-05-06T05:31:33.039Z,99.99
2023-05-06T05:32:33.074Z,99.99
2023-05-06T05:33:32.947Z,99.99
2023-05-06T05:34:33.112Z,99.99
2023-05-06T05:35:32.887Z,99.99
2023-05-06T05:36:33.090Z,99.99
2023-05-06T05:37:32.861Z,99.99
2023-05-06T05:38:32.999Z,99.99
2023-05-06T05:39:32.832Z,99.99
2023-05-06T05:40:33.161Z,99.99
2023-05-06T05:41:32.840Z,99.99
2023-05-06T05:42:32.920Z,99.99
2023-05-06T05:43:32.937Z,99.99
2023-05-06T05:44:32.836Z,99.99
2023-05-06T05:45:32.879Z,99.99
2023-05-06T05:46:32.852Z,99.99
2023-05-06T05:47:32.894Z,99.99
2023-05-06T05:48:32.975Z,99.99
2023-05-06T05:49:32.706Z,99.99
2023-05-06T05:50:32.881Z,99.99
2023-05-06T05:51:32.701Z,99.99
2023-05-06T05:52:32.839Z,99.99
2023-05-06T05:53:32.800Z,99.96
2023-05-06T05:54:32.657Z,99.86
2023-05-06T05:55:32.801Z,99.86
2023-05-06T05:56:32.641Z,99.55
2023-05-06T05:57:32.854Z,99.25
2023-05-06T05:58:32.767Z,99.35
2023-05-06T05:59:32.895Z,99.45
2023-05-06T06:00:32.614Z,99.66
2023-05-06T06:01:33.089Z,99.71
2023-05-06T06:02:32.747Z,99.99
2023-05-06T06:03:32.848Z,99.99
2023-05-06T06:04:32.645Z,99.61
2023-05-06T06:05:32.816Z,99.41
2023-05-06T06:06:32.669Z,99.41
2023-05-06T06:07:33.291Z,99.30
2023-05-06T06:08:32.628Z,99.10
2023-05-06T06:09:32.716Z,98.90
2023-05-06T06:10:32.518Z,98.49
2023-05-06T06:11:32.633Z,97.67
2023-05-06T06:12:32.518Z,97.57
2023-05-06T06:13:32.583Z,97.57
2023-05-06T06:14:32.594Z,97.57
2023-05-06T06:15:32.393Z,97.67
2023-05-06T06:16:32.763Z,97.88
2023-05-06T06:17:32.436Z,97.98
2023-05-06T06:18:32.486Z,98.08
2023-05-06T06:19:32.493Z,97.78
2023-05-06T06:20:32.329Z,97.47
2023-05-06T06:21:32.464Z,97.98
2023-05-06T06:22:32.398Z,98.39
2023-05-06T06:23:32.792Z,98.24
2023-05-06T06:24:32.501Z,97.73
2023-05-06T06:25:32.603Z,97.83
2023-05-06T06:26:32.590Z,98.34
2023-05-06T06:27:32.241Z,98.44
2023-05-06T06:28:32.334Z,97.73
2023-05-06T06:29:32.196Z,97.22
2023-05-06T06:30:32.726Z,97.73
2023-05-06T06:31:32.238Z,97.63
2023-05-06T06:32:32.292Z,96.92
2023-05-06T06:33:32.129Z,96.81
2023-05-06T06:34:32.262Z,96.81
2023-05-06T06:35:32.167Z,97.17
2023-05-06T06:36:32.274Z,97.17
2023-05-06T06:37:32.087Z,96.87
2023-05-06T06:38:32.288Z,96.56
2023-05-06T06:39:32.047Z,96.77
2023-05-06T06:40:32.311Z,96.15
2023-05-06T06:41:32.043Z,95.45
2023-05-06T06:42:32.815Z,95.34
2023-05-06T06:43:32.010Z,95.04
2023-05-06T06:44:32.316Z,95.14
2023-05-06T06:45:32.154Z,95.14
2023-05-06T06:46:32.015Z,95.34
2023-05-06T06:47:32.208Z,95.45
2023-05-06T06:48:31.940Z,95.24
2023-05-06T06:49:32.150Z,95.34
2023-05-06T06:50:31.941Z,95.95
2023-05-06T06:51:32.088Z,96.01
2023-05-06T06:52:31.913Z,96.01
2023-05-06T06:53:31.983Z,95.91
2023-05-06T06:54:31.884Z,96.83
2023-05-06T06:55:32.117Z,97.08
2023-05-06T06:56:31.865Z,96.98
2023-05-06T06:57:32.106Z,96.27
2023-05-06T06:58:31.849Z,96.68
2023-05-06T06:59:32.042Z,96.68
2023-05-06T07:00:31.897Z,96.47
2023-05-06T07:01:31.871Z,96.17
2023-05-06T07:02:31.864Z,95.41
2023-05-06T07:03:31.844Z,95.41
2023-05-06T07:04:31.806Z,95.72
2023-05-06T07:05:31.879Z,96.28
2023-05-06T07:06:31.760Z,95.98
2023-05-06T07:07:32.317Z,94.86
2023-05-06T07:08:31.833Z,93.44
2023-05-06T07:09:33.384Z,93.13
2023-05-06T07:10:31.693Z,93.33
2023-05-06T07:11:31.907Z,94.56
2023-05-06T07:12:31.643Z,93.60
2023-05-06T07:13:31.706Z,94.41
2023-05-06T07:14:31.655Z,94.41
2023-05-06T07:15:31.772Z,94.00
2023-05-06T07:16:31.812Z,93.95
2023-05-06T07:17:31.565Z,93.29
2023-05-06T07:18:31.777Z,94.21
2023-05-06T07:19:31.520Z,95.53
2023-05-06T07:20:31.718Z,95.32
2023-05-06T07:21:31.530Z,93.29
2023-05-06T07:22:31.825Z,92.89
2023-05-06T07:23:32.284Z,93.60
2023-05-06T07:24:31.586Z,93.70
2023-05-06T07:25:31.468Z,94.06
2023-05-06T07:26:31.717Z,93.86
2023-05-06T07:27:31.463Z,93.55
2023-05-06T07:28:31.692Z,93.35
2023-05-06T07:29:31.490Z,92.64
2023-05-06T07:30:31.532Z,91.02
2023-05-06T07:31:31.627Z,90.00
2023-05-06T07:32:31.613Z,90.11
2023-05-06T07:33:31.351Z,90.41
2023-05-06T07:34:31.523Z,90.11
2023-05-06T07:35:31.339Z,90.61
2023-05-06T07:36:31.494Z,91.22
2023-05-06T07:37:31.490Z,90.77
2023-05-06T07:38:31.340Z,90.97
2023-05-06T07:39:31.396Z,91.68
2023-05-06T07:40:31.322Z,91.24
2023-05-06T07:41:31.430Z,90.53
2023-05-06T07:42:31.401Z,89.81
2023-05-06T07:43:31.228Z,89.92
2023-05-06T07:44:31.566Z,88.70
2023-05-06T07:45:31.237Z,88.40
2023-05-06T07:46:31.514Z,88.29
2023-05-06T07:47:31.535Z,88.20
2023-05-06T07:48:31.368Z,88.40
2023-05-06T07:49:31.157Z,87.89
2023-05-06T07:50:31.279Z,88.20
2023-05-06T07:51:31.352Z,90.79
2023-05-06T07:52:31.529Z,92.10
2023-05-06T07:53:31.082Z,93.42
2023-05-06T07:54:31.394Z,89.87
2023-05-06T07:55:32.012Z,91.60
2023-05-06T07:56:31.391Z,91.15
2023-05-06T07:57:31.646Z,90.84
2023-05-06T07:58:31.246Z,90.44
2023-05-06T07:59:31.118Z,89.23
2023-05-06T08:00:31.269Z,88.82
2023-05-06T08:01:31.051Z,88.31
2023-05-06T08:02:31.326Z,88.42
2023-05-06T08:03:31.232Z,87.20
2023-05-06T08:04:31.128Z,86.59
2023-05-06T08:05:31.189Z,86.05
2023-05-06T08:06:30.985Z,86.15
2023-05-06T08:07:31.192Z,84.22
2023-05-06T08:08:31.207Z,83.72
2023-05-06T08:09:30.897Z,85.84
2023-05-06T08:10:31.036Z,88.27
2023-05-06T08:11:31.124Z,85.54
2023-05-06T08:12:31.100Z,85.84
2023-05-06T08:13:30.881Z,84.63
2023-05-06T08:14:31.044Z,84.39
2023-05-06T08:15:30.812Z,83.37
2023-05-06T08:16:31.069Z,83.37
2023-05-06T08:17:31.674Z,82.16
2023-05-06T08:18:31.164Z,81.71
2023-05-06T08:19:30.776Z,81.41
2023-05-06T08:20:30.981Z,81.62
2023-05-06T08:21:30.779Z,80.91
2023-05-06T08:22:30.927Z,82.42
2023-05-06T08:23:30.760Z,83.19
2023-05-06T08:24:30.892Z,81.21
2023-05-06T08:25:30.684Z,79.66
2023-05-06T08:26:30.959Z,79.75
2023-05-06T08:27:31.090Z,81.07
2023-05-06T08:28:31.045Z,80.77
2023-05-06T08:29:31.406Z,80.36
2023-05-06T08:30:30.747Z,80.53
2023-05-06T08:31:30.685Z,80.83
2023-05-06T08:32:30.971Z,81.64
2023-05-06T08:33:30.591Z,81.50
2023-05-06T08:34:31.303Z,79.99
2023-05-06T08:35:30.587Z,78.06
2023-05-06T08:36:30.744Z,77.36
2023-05-06T08:37:30.551Z,78.88
2023-05-06T08:38:30.781Z,77.09
2023-05-06T08:39:30.735Z,79.21
2023-05-06T08:40:30.601Z,80.59
2023-05-06T08:41:30.650Z,80.19
2023-05-06T08:42:30.516Z,79.48
2023-05-06T08:43:30.777Z,78.97
2023-05-06T08:44:30.510Z,79.74
2023-05-06T08:45:30.677Z,76.31
2023-05-06T08:46:30.463Z,76.82
2023-05-06T08:47:30.666Z,75.31
2023-05-06T08:48:30.435Z,77.32
2023-05-06T08:49:30.681Z,77.93
2023-05-06T08:50:30.377Z,77.69
2023-05-06T08:51:30.464Z,76.48
2023-05-06T08:52:30.358Z,75.47
2023-05-06T08:53:30.471Z,76.78
2023-05-06T08:54:30.347Z,72.85
2023-05-06T08:55:30.522Z,72.04
2023-05-06T08:56:30.298Z,75.07
2023-05-06T08:57:30.406Z,76.88
2023-05-06T08:58:30.285Z,75.94
2023-05-06T08:59:30.479Z,77.35
2023-05-06T09:00:30.256Z,76.44
2023-05-06T09:01:30.458Z,75.34
2023-05-06T09:02:30.291Z,74.22
2023-05-06T09:03:30.644Z,73.88
2023-05-06T09:04:30.231Z,72.38
2023-05-06T09:05:30.272Z,75.10
2023-05-06T09:06:30.201Z,75.76
2023-05-06T09:07:30.280Z,71.94
2023-05-06T09:08:30.173Z,70.12
2023-05-06T09:09:30.391Z,69.49
2023-05-06T09:10:30.283Z,69.09
2023-05-06T09:11:30.169Z,66.97
2023-05-06T09:12:30.171Z,68.18
2023-05-06T09:13:30.114Z,71.50
2023-05-06T09:14:30.237Z,71.10
2023-05-06T09:15:30.624Z,72.61
2023-05-06T09:16:30.187Z,70.50
2023-05-06T09:17:30.206Z,71.06
2023-05-06T09:18:29.995Z,71.36
2023-05-06T09:19:30.309Z,72.17
2023-05-06T09:20:30.074Z,74.58
2023-05-06T09:21:30.216Z,70.16
2023-05-06T09:22:30.123Z,69.35
2023-05-06T09:23:30.097Z,69.35
2023-05-06T09:24:29.932Z,69.62
2023-05-06T09:25:30.173Z,69.42
2023-05-06T09:26:30.154Z,70.12
2023-05-06T09:27:29.897Z,69.29
2023-05-06T09:28:30.023Z,68.98
2023-05-06T09:29:29.886Z,67.07
2023-05-06T09:30:30.053Z,67.38
2023-05-06T09:31:30.191Z,68.08
2023-05-06T09:32:29.969Z,70.16
2023-05-06T09:33:29.964Z,67.85
2023-05-06T09:34:29.796Z,66.03
2023-05-06T09:35:29.989Z,66.44
2023-05-06T09:36:29.828Z,67.91
2023-05-06T09:37:30.037Z,68.62
2023-05-06T09:38:29.765Z,69.92
2023-05-06T09:39:29.891Z,71.00
2023-05-06T09:40:29.707Z,71.80
2023-05-06T09:41:29.919Z,68.65
2023-05-06T09:42:29.779Z,71.26
2023-05-06T09:43:29.973Z,70.06
2023-05-06T09:44:29.750Z,70.56
2023-05-06T09:45:29.984Z,69.96
2023-05-06T09:46:29.697Z,69.96
2023-05-06T09:47:30.094Z,69.82
2023-05-06T09:48:29.665Z,69.82
2023-05-06T09:49:29.805Z,67.52
2023-05-06T09:50:29.669Z,68.62
2023-05-06T09:51:29.773Z,70.23
2023-05-06T09:52:29.607Z,67.52
2023-05-06T09:53:29.700Z,66.95
2023-05-06T09:54:29.521Z,65.64
2023-05-06T09:55:29.772Z,64.74
2023-05-06T09:56:29.554Z,67.45
2023-05-06T09:57:29.726Z,66.55
2023-05-06T09:58:29.488Z,67.65
2023-05-06T09:59:29.670Z,67.35
2023-05-06T10:00:29.470Z,58.62
2023-05-06T10:01:36.553Z,63.93
2023-05-06T10:02:30.907Z,65.14
2023-05-06T10:03:29.706Z,66.24
2023-05-06T10:04:29.858Z,63.60
2023-05-06T10:05:29.463Z,64.51
2023-05-06T10:06:29.552Z,62.80
2023-05-06T10:07:29.637Z,62.47
2023-05-06T10:08:29.346Z,62.27
2023-05-06T10:09:29.672Z,64.68
2023-05-06T10:10:29.348Z,66.55
2023-05-06T10:11:29.608Z,64.34
2023-05-06T10:12:29.317Z,62.74
2023-05-06T10:13:29.566Z,59.83
2023-05-06T10:14:29.289Z,58.96
2023-05-06T10:15:29.538Z,62.84
2023-05-06T10:16:29.307Z,63.64
2023-05-06T10:17:29.465Z,62.44
2023-05-06T10:18:29.242Z,59.03
2023-05-06T10:19:29.783Z,60.84
2023-05-06T10:20:29.263Z,64.04
2023-05-06T10:21:29.465Z,62.14
2023-05-06T10:22:29.191Z,59.94
2023-05-06T10:23:29.510Z,58.33
2023-05-06T10:24:29.181Z,64.65
2023-05-06T10:25:29.408Z,63.54
2023-05-06T10:26:29.129Z,62.44
2023-05-06T10:27:29.357Z,61.54
2023-05-06T10:28:31.065Z,60.51
2023-05-06T10:29:29.229Z,60.78
2023-05-06T10:30:29.089Z,61.68
2023-05-06T10:31:29.366Z,62.85
2023-05-06T10:32:29.121Z,63.53
2023-05-06T10:33:29.253Z,59.92
2023-05-06T10:34:29.171Z,58.49
2023-05-06T10:35:29.171Z,57.50
2023-05-06T10:36:29.070Z,54.29
2023-05-06T10:37:29.186Z,56.70
2023-05-06T10:38:29.172Z,60.19
2023-05-06T10:39:28.998Z,56.89
2023-05-06T10:40:28.965Z,56.20
2023-05-06T10:41:28.976Z,58.29
2023-05-06T10:42:28.986Z,58.19
2023-05-06T10:43:28.982Z,54.32
2023-05-06T10:44:29.023Z,55.92
2023-05-06T10:45:29.032Z,55.52
2023-05-06T10:46:29.113Z,55.15
2023-05-06T10:47:28.890Z,56.12
2023-05-06T10:48:29.162Z,58.22
2023-05-06T10:49:29.122Z,57.12
2023-05-06T10:50:29.385Z,55.44
2023-05-06T10:51:29.167Z,59.75
2023-05-06T10:52:28.927Z,56.82
2023-05-06T10:53:28.802Z,56.82
2023-05-06T10:54:28.915Z,54.92
2023-05-06T10:55:28.841Z,56.72
2023-05-06T10:56:28.886Z,58.69
2023-05-06T10:57:28.742Z,57.19
2023-05-06T10:58:28.798Z,54.99
2023-05-06T10:59:28.940Z,58.09
2023-05-06T11:00:28.693Z,58.56
2023-05-06T11:01:29.008Z,59.06
2023-05-06T11:02:28.808Z,54.67
2023-05-06T11:03:29.681Z,58.06
2023-05-06T11:04:28.920Z,56.96
2023-05-06T11:05:28.714Z,58.04
2023-05-06T11:06:28.851Z,58.14
2023-05-06T11:07:28.667Z,54.14
2023-05-06T11:08:28.718Z,53.34
2023-05-06T11:09:28.617Z,53.04
2023-05-06T11:10:28.555Z,56.84
2023-05-06T11:11:28.808Z,61.80
2023-05-06T11:12:28.526Z,59.01
2023-05-06T11:13:29.389Z,49.52
2023-05-06T11:14:28.556Z,50.35
2023-05-06T11:15:28.735Z,52.04
2023-05-06T11:16:28.595Z,51.47
2023-05-06T11:17:28.711Z,50.47
2023-05-06T11:18:28.482Z,51.47
2023-05-06T11:19:28.571Z,54.39
2023-05-06T11:20:28.435Z,56.70
2023-05-06T11:21:28.566Z,55.87
2023-05-06T11:22:28.383Z,59.66
2023-05-06T11:23:28.563Z,55.57
2023-05-06T11:24:28.604Z,54.06
2023-05-06T11:25:28.510Z,55.97
2023-05-06T11:26:28.385Z,54.37
2023-05-06T11:27:28.508Z,53.57
2023-05-06T11:28:28.385Z,55.34
2023-05-06T11:29:28.474Z,57.93
2023-05-06T11:30:28.503Z,59.61
2023-05-06T11:31:28.324Z,52.82
2023-05-06T11:32:28.544Z,50.02
2023-05-06T11:33:28.292Z,53.12
2023-05-06T11:34:28.311Z,55.88
2023-05-06T11:35:28.246Z,56.29
2023-05-06T11:36:28.366Z,52.79
2023-05-06T11:37:28.249Z,51.70
2023-05-06T11:38:28.349Z,49.00
2023-05-06T11:39:28.242Z,55.58
2023-05-06T11:40:28.375Z,51.20
2023-05-06T11:41:28.199Z,53.29
2023-05-06T11:42:28.520Z,57.18
2023-05-06T11:43:28.131Z,59.08
2023-05-06T11:44:28.193Z,55.79
2023-05-06T11:45:28.163Z,55.96
2023-05-06T11:46:28.226Z,53.36
2023-05-06T11:47:28.163Z,55.58
2023-05-06T11:48:28.224Z,56.18
2023-05-06T11:49:28.110Z,52.79
2023-05-06T11:50:28.328Z,54.49
2023-05-06T11:51:28.055Z,51.77
2023-05-06T11:52:28.240Z,54.39
2023-05-06T11:53:28.024Z,57.18
2023-05-06T11:54:28.137Z,53.06
2023-05-06T11:55:28.008Z,49.70
2023-05-06T11:56:28.178Z,50.00
2023-05-06T11:57:27.964Z,51.10
2023-05-06T11:58:28.194Z,53.49
2023-05-06T11:59:27.944Z,53.72
2023-05-06T12:00:28.116Z,50.92
2023-05-06T12:01:28.010Z,55.99
2023-05-06T12:02:27.965Z,55.69
2023-05-06T12:03:28.203Z,50.99
2023-05-06T12:04:27.891Z,50.30
2023-05-06T12:05:27.945Z,52.19
2023-05-06T12:06:27.825Z,49.50
2023-05-06T12:07:28.031Z,52.19
2023-05-06T12:08:28.597Z,53.77
2023-05-06T12:09:27.965Z,53.36
2023-05-06T12:10:27.798Z,54.16
2023-05-06T12:11:27.926Z,51.67
2023-05-06T12:12:27.750Z,50.40
2023-05-06T12:13:27.918Z,51.29
2023-05-06T12:14:27.723Z,56.18
2023-05-06T12:15:27.932Z,56.76
2023-05-06T12:16:27.751Z,53.06
2023-05-06T12:17:28.038Z,53.17
2023-05-06T12:18:27.677Z,58.95
2023-05-06T12:19:27.851Z,57.95
2023-05-06T12:20:27.712Z,50.74
2023-05-06T12:21:27.740Z,50.35
2023-05-06T12:22:27.617Z,55.93
2023-05-06T12:23:27.852Z,56.53
2023-05-06T12:24:27.623Z,57.00
2023-05-06T12:25:27.809Z,58.70
2023-05-06T12:26:27.569Z,55.98
2023-05-06T12:27:27.862Z,55.28
2023-05-06T12:28:27.585Z,50.70
2023-05-06T12:29:27.686Z,51.10
2023-05-06T12:30:27.511Z,52.79
2023-05-06T12:31:27.640Z,48.41
2023-05-06T12:32:27.605Z,51.72
2023-05-06T12:33:27.754Z,50.25
2023-05-06T12:34:27.452Z,50.15
2023-05-06T12:35:27.761Z,51.84
2023-05-06T12:36:27.433Z,46.38
2023-05-06T12:37:27.655Z,48.68
2023-05-06T12:38:27.419Z,49.18
2023-05-06T12:39:27.622Z,47.90
2023-05-06T12:40:27.417Z,50.60
2023-05-06T12:41:27.577Z,51.70
2023-05-06T12:42:27.390Z,53.59
2023-05-06T12:43:27.566Z,51.27
2023-05-06T12:44:27.406Z,50.47
2023-05-06T12:45:27.628Z,50.77
2023-05-06T12:46:27.518Z,52.89
2023-05-06T12:47:27.473Z,57.39
2023-05-06T12:48:27.337Z,54.66
2023-05-06T12:49:27.488Z,50.20
2023-05-06T12:50:27.289Z,47.60
2023-05-06T12:51:27.605Z,49.02
2023-05-06T12:52:27.232Z,48.22